sensor_id;sensor_type;location;lat;lon;timestamp;pressure;altitude;pressure_sealevel;temperature;humidity
19890;BME280;10107;51.198;6.824;2024-02-21T00:03:23;66265.25;;;7.90;100.00
19890;BME280;10107;51.198;6.824;2024-02-21T00:07:25;66303.38;;;7.89;100.00
19890;BME280;10107;51.198;6.824;2024-02-21T00:11:28;66340.03;;;7.89;100.00
19890;BME280;10107;51.198;6.824;2024-02-21T00:15:29;66303.69;;;7.91;100.00
19890;BME280;10107;51.198;6.824;2024-02-21T00:19:32;66315.59;;;7.90;100.00
19890;BME280;10107;51.198;6.824;2024-02-21T00:23:34;66313.59;;;7.91;100.00
19890;BME280;10107;51.198;6.824;2024-02-21T00:27:36;66285.94;;;7.92;100.00
19890;BME280;10107;51.198;6.824;2024-02-21T00:31:37;66344.41;;;7.90;100.00
19890;BME280;10107;51.198;6.824;2024-02-21T00:35:40;66299.88;;;7.90;100.00
19890;BME280;10107;51.198;6.824;2024-02-21T00:39:42;66280.97;;;7.90;100.00
19890;BME280;10107;51.198;6.824;2024-02-21T00:43:44;66283.00;;;7.89;100.00
19890;BME280;10107;51.198;6.824;2024-02-21T00:47:45;66342.66;;;7.89;100.00
19890;BME280;10107;51.198;6.824;2024-02-21T00:51:48;66285.03;;;7.89;100.00
19890;BME280;10107;51.198;6.824;2024-02-21T00:55:50;66325.75;;;7.88;100.00
19890;BME280;10107;51.198;6.824;2024-02-21T00:59:51;66301.84;;;7.85;100.00
19890;BME280;10107;51.198;6.824;2024-02-21T01:03:53;66253.53;;;7.84;100.00
19890;BME280;10107;51.198;6.824;2024-02-21T01:07:56;66282.66;;;7.87;100.00
19890;BME280;10107;51.198;6.824;2024-02-21T01:11:58;66279.44;;;7.86;100.00
19890;BME280;10107;51.198;6.824;2024-02-21T01:15:59;66327.44;;;7.85;100.00
19890;BME280;10107;51.198;6.824;2024-02-21T01:20:01;66321.03;;;7.84;100.00
19890;BME280;10107;51.198;6.824;2024-02-21T01:24:04;66264.56;;;7.85;100.00
19890;BME280;10107;51.198;6.824;2024-02-21T01:28:06;66302.97;;;7.82;100.00
19890;BME280;10107;51.198;6.824;2024-02-21T01:32:08;66286.41;;;7.83;100.00
19890;BME280;10107;51.198;6.824;2024-02-21T01:36:09;66293.06;;;7.82;100.00
19890;BME280;10107;51.198;6.824;2024-02-21T01:40:14;66327.97;;;7.81;100.00
19890;BME280;10107;51.198;6.824;2024-02-21T01:44:16;66284.63;;;7.82;100.00
19890;BME280;10107;51.198;6.824;2024-02-21T01:48:18;66315.22;;;7.83;100.00
19890;BME280;10107;51.198;6.824;2024-02-21T01:52:20;66313.75;;;7.84;100.00
19890;BME280;10107;51.198;6.824;2024-02-21T01:56:23;66320.44;;;7.83;100.00
19890;BME280;10107;51.198;6.824;2024-02-21T02:00:25;66301.19;;;7.80;100.00
19890;BME280;10107;51.198;6.824;2024-02-21T02:04:28;66281.44;;;7.81;100.00
19890;BME280;10107;51.198;6.824;2024-02-21T02:08:31;66307.00;;;7.81;100.00
19890;BME280;10107;51.198;6.824;2024-02-21T02:12:34;66291.56;;;7.79;100.00
19890;BME280;10107;51.198;6.824;2024-02-21T02:16:36;66307.53;;;7.77;100.00
19890;BME280;10107;51.198;6.824;2024-02-21T02:20:38;66281.34;;;7.77;100.00
19890;BME280;10107;51.198;6.824;2024-02-21T02:24:41;66338.69;;;7.79;100.00
19890;BME280;10107;51.198;6.824;2024-02-21T02:28:43;66286.06;;;7.81;100.00
19890;BME280;10107;51.198;6.824;2024-02-21T02:32:45;66275.00;;;7.80;100.00
19890;BME280;10107;51.198;6.824;2024-02-21T02:36:47;66257.25;;;7.81;100.00
19890;BME280;10107;51.198;6.824;2024-02-21T02:40:50;66276.44;;;7.79;100.00
19890;BME280;10107;51.198;6.824;2024-02-21T02:44:52;66292.16;;;7.79;100.00
19890;BME280;10107;51.198;6.824;2024-02-21T02:48:54;66271.78;;;7.80;100.00
19890;BME280;10107;51.198;6.824;2024-02-21T02:52:55;66266.81;;;7.78;100.00
19890;BME280;10107;51.198;6.824;2024-02-21T02:56:58;66288.94;;;7.79;100.00
19890;BME280;10107;51.198;6.824;2024-02-21T03:01:00;66283.44;;;7.81;100.00
19890;BME280;10107;51.198;6.824;2024-02-21T03:05:12;66302.38;;;7.81;100.00
19890;BME280;10107;51.198;6.824;2024-02-21T03:09:13;66304.66;;;7.79;100.00
19890;BME280;10107;51.198;6.824;2024-02-21T03:13:17;66295.38;;;7.80;100.00
19890;BME280;10107;51.198;6.824;2024-02-21T03:17:19;66306.38;;;7.76;100.00
19890;BME280;10107;51.198;6.824;2024-02-21T03:21:20;66306.94;;;7.76;100.00
19890;BME280;10107;51.198;6.824;2024-02-21T03:25:22;66301.41;;;7.73;100.00
19890;BME280;10107;51.198;6.824;2024-02-21T03:29:25;66281.88;;;7.72;100.00
19890;BME280;10107;51.198;6.824;2024-02-21T03:33:27;66277.47;;;7.71;100.00
19890;BME280;10107;51.198;6.824;2024-02-21T03:37:28;66284.16;;;7.70;100.00
19890;BME280;10107;51.198;6.824;2024-02-21T03:41:30;66288.81;;;7.69;100.00
19890;BME280;10107;51.198;6.824;2024-02-21T03:45:33;66263.47;;;7.68;100.00
19890;BME280;10107;51.198;6.824;2024-02-21T03:49:34;66296.69;;;7.69;100.00
19890;BME280;10107;51.198;6.824;2024-02-21T03:53:36;66312.66;;;7.67;100.00
19890;BME280;10107;51.198;6.824;2024-02-21T03:57:37;66273.38;;;7.67;100.00
19890;BME280;10107;51.198;6.824;2024-02-21T04:01:40;66282.97;;;7.69;100.00
19890;BME280;10107;51.198;6.824;2024-02-21T04:05:42;66297.53;;;7.68;100.00
19890;BME280;10107;51.198;6.824;2024-02-21T04:09:44;66276.56;;;7.68;100.00
19890;BME280;10107;51.198;6.824;2024-02-21T04:13:45;66278.34;;;7.69;100.00
19890;BME280;10107;51.198;6.824;2024-02-21T04:17:50;66281.56;;;7.70;100.00
19890;BME280;10107;51.198;6.824;2024-02-21T04:21:53;66296.06;;;7.69;100.00
19890;BME280;10107;51.198;6.824;2024-02-21T04:25:55;66292.88;;;7.68;100.00
19890;BME280;10107;51.198;6.824;2024-02-21T04:29:56;66262.63;;;7.69;100.00
19890;BME280;10107;51.198;6.824;2024-02-21T04:33:59;66269.31;;;7.68;100.00
19890;BME280;10107;51.198;6.824;2024-02-21T04:38:01;66282.41;;;7.68;100.00
19890;BME280;10107;51.198;6.824;2024-02-21T04:42:03;66280.69;;;7.71;100.00
19890;BME280;10107;51.198;6.824;2024-02-21T04:46:04;66322.25;;;7.69;100.00
19890;BME280;10107;51.198;6.824;2024-02-21T04:50:08;66268.47;;;7.70;100.00
19890;BME280;10107;51.198;6.824;2024-02-21T04:54:10;66268.47;;;7.70;100.00
19890;BME280;10107;51.198;6.824;2024-02-21T04:58:11;66301.91;;;7.69;100.00
19890;BME280;10107;51.198;6.824;2024-02-21T05:02:13;66281.81;;;7.68;100.00
19890;BME280;10107;51.198;6.824;2024-02-21T05:06:16;66288.22;;;7.69;100.00
19890;BME280;10107;51.198;6.824;2024-02-21T05:10:18;66261.44;;;7.68;100.00
19890;BME280;10107;51.198;6.824;2024-02-21T05:14:21;66295.22;;;7.70;100.00
19890;BME280;10107;51.198;6.824;2024-02-21T05:18:22;66256.22;;;7.68;100.00
19890;BME280;10107;51.198;6.824;2024-02-21T05:22:25;66327.16;;;7.66;100.00
19890;BME280;10107;51.198;6.824;2024-02-21T05:26:27;66294.31;;;7.67;100.00
19890;BME280;10107;51.198;6.824;2024-02-21T05:30:29;66278.00;;;7.67;100.00
19890;BME280;10107;51.198;6.824;2024-02-21T05:34:31;66261.72;;;7.66;100.00
19890;BME280;10107;51.198;6.824;2024-02-21T05:38:34;66264.31;;;7.66;100.00
19890;BME280;10107;51.198;6.824;2024-02-21T05:42:35;66289.09;;;7.67;100.00
19890;BME280;10107;51.198;6.824;2024-02-21T05:46:37;66273.38;;;7.67;100.00
19890;BME280;10107;51.198;6.824;2024-02-21T05:50:39;66276.00;;;7.67;100.00
19890;BME280;10107;51.198;6.824;2024-02-21T05:54:41;66262.91;;;7.67;100.00
19890;BME280;10107;51.198;6.824;2024-02-21T05:58:43;66305.63;;;7.66;100.00
19890;BME280;10107;51.198;6.824;2024-02-21T06:02:45;66241.03;;;7.64;100.00
19890;BME280;10107;51.198;6.824;2024-02-21T06:06:46;66278.88;;;7.65;100.00
19890;BME280;10107;51.198;6.824;2024-02-21T06:10:49;66289.59;;;7.63;100.00
19890;BME280;10107;51.198;6.824;2024-02-21T06:14:54;66285.22;;;7.62;100.00
19890;BME280;10107;51.198;6.824;2024-02-21T06:18:56;66269.81;;;7.64;100.00
19890;BME280;10107;51.198;6.824;2024-02-21T06:22:58;66307.91;;;7.63;100.00
19890;BME280;10107;51.198;6.824;2024-02-21T06:27:01;66294.25;;;7.63;100.00
19890;BME280;10107;51.198;6.824;2024-02-21T06:31:03;66258.16;;;7.63;100.00
19890;BME280;10107;51.198;6.824;2024-02-21T06:35:05;66322.78;;;7.65;100.00
19890;BME280;10107;51.198;6.824;2024-02-21T06:39:07;66280.88;;;7.65;100.00
19890;BME280;10107;51.198;6.824;2024-02-21T06:43:10;66274.47;;;7.64;100.00
19890;BME280;10107;51.198;6.824;2024-02-21T06:47:12;66286.72;;;7.65;100.00
19890;BME280;10107;51.198;6.824;2024-02-21T06:51:14;66268.63;;;7.63;100.00
19890;BME280;10107;51.198;6.824;2024-02-21T06:55:15;66275.06;;;7.64;100.00
19890;BME280;10107;51.198;6.824;2024-02-21T06:59:18;66304.78;;;7.67;100.00
19890;BME280;10107;51.198;6.824;2024-02-21T07:03:20;66248.09;;;7.70;100.00
19890;BME280;10107;51.198;6.824;2024-02-21T07:07:21;66330.78;;;7.74;100.00
19890;BME280;10107;51.198;6.824;2024-02-21T07:11:23;66271.13;;;7.74;100.00
19890;BME280;10107;51.198;6.824;2024-02-21T07:15:26;66316.31;;;7.80;100.00
19890;BME280;10107;51.198;6.824;2024-02-21T07:19:29;66307.09;;;7.85;100.00
19890;BME280;10107;51.198;6.824;2024-02-21T07:23:30;66294.63;;;7.90;100.00
19890;BME280;10107;51.198;6.824;2024-02-21T07:27:32;66277.16;;;7.89;100.00
19890;BME280;10107;51.198;6.824;2024-02-21T07:31:40;66276.91;;;7.91;100.00
19890;BME280;10107;51.198;6.824;2024-02-21T07:35:42;66330.47;;;7.92;100.00
19890;BME280;10107;51.198;6.824;2024-02-21T07:39:45;66277.81;;;7.94;100.00
19890;BME280;10107;51.198;6.824;2024-02-21T07:43:47;66301.66;;;7.92;100.00
19890;BME280;10107;51.198;6.824;2024-02-21T07:47:50;66305.47;;;7.93;100.00
19890;BME280;10107;51.198;6.824;2024-02-21T07:51:52;66281.28;;;7.92;100.00
19890;BME280;10107;51.198;6.824;2024-02-21T07:55:54;66322.34;;;7.94;100.00
19890;BME280;10107;51.198;6.824;2024-02-21T07:59:55;66317.94;;;7.92;100.00
19890;BME280;10107;51.198;6.824;2024-02-21T08:03:58;66314.75;;;7.92;100.00
19890;BME280;10107;51.198;6.824;2024-02-21T08:08:00;66285.34;;;7.91;100.00
19890;BME280;10107;51.198;6.824;2024-02-21T08:12:04;66312.78;;;7.97;100.00
19890;BME280;10107;51.198;6.824;2024-02-21T08:16:06;66296.16;;;7.94;100.00
19890;BME280;10107;51.198;6.824;2024-02-21T08:20:10;66272.56;;;7.94;100.00
19890;BME280;10107;51.198;6.824;2024-02-21T08:24:12;66283.31;;;7.92;100.00
19890;BME280;10107;51.198;6.824;2024-02-21T08:28:13;66295.50;;;7.89;100.00
19890;BME280;10107;51.198;6.824;2024-02-21T08:32:15;66306.56;;;7.89;100.00
19890;BME280;10107;51.198;6.824;2024-02-21T08:36:18;66297.19;;;7.86;100.00
19890;BME280;10107;51.198;6.824;2024-02-21T08:40:20;66326.84;;;7.84;100.00
19890;BME280;10107;51.198;6.824;2024-02-21T08:44:22;66273.56;;;7.81;100.00
19890;BME280;10107;51.198;6.824;2024-02-21T08:48:26;66309.63;;;7.81;100.00
19890;BME280;10107;51.198;6.824;2024-02-21T08:52:29;66284.38;;;7.84;100.00
19890;BME280;10107;51.198;6.824;2024-02-21T08:56:30;66309.44;;;7.87;100.00
19890;BME280;10107;51.198;6.824;2024-02-21T09:00:33;66343.25;;;7.89;100.00
19890;BME280;10107;51.198;6.824;2024-02-21T09:04:34;66326.69;;;7.91;100.00
19890;BME280;10107;51.198;6.824;2024-02-21T09:08:37;66321.44;;;7.91;100.00
19890;BME280;10107;51.198;6.824;2024-02-21T09:12:39;66320.50;;;7.88;100.00
19890;BME280;10107;51.198;6.824;2024-02-21T09:16:40;66291.19;;;7.92;100.00
19890;BME280;10107;51.198;6.824;2024-02-21T09:20:42;66315.41;;;7.97;100.00
19890;BME280;10107;51.198;6.824;2024-02-21T09:24:45;66304.72;;;8.04;100.00
19890;BME280;10107;51.198;6.824;2024-02-21T09:28:47;66311.00;;;8.16;100.00
19890;BME280;10107;51.198;6.824;2024-02-21T09:32:49;66349.47;;;8.18;100.00
19890;BME280;10107;51.198;6.824;2024-02-21T09:36:51;66360.94;;;8.25;100.00
19890;BME280;10107;51.198;6.824;2024-02-21T09:40:59;66354.72;;;8.38;100.00
19890;BME280;10107;51.198;6.824;2024-02-21T09:45:02;66347.00;;;8.47;100.00
19890;BME280;10107;51.198;6.824;2024-02-21T09:49:14;66378.06;;;8.61;100.00
19890;BME280;10107;51.198;6.824;2024-02-21T09:53:24;66333.63;;;8.70;100.00
19890;BME280;10107;51.198;6.824;2024-02-21T09:57:27;66370.44;;;8.79;100.00
19890;BME280;10107;51.198;6.824;2024-02-21T10:01:29;66384.41;;;8.98;100.00
19890;BME280;10107;51.198;6.824;2024-02-21T10:05:32;66400.38;;;9.17;100.00
19890;BME280;10107;51.198;6.824;2024-02-21T10:09:34;66420.69;;;9.32;100.00
19890;BME280;10107;51.198;6.824;2024-02-21T10:13:37;66396.88;;;9.39;100.00
19890;BME280;10107;51.198;6.824;2024-02-21T10:17:39;66411.44;;;9.38;100.00
19890;BME280;10107;51.198;6.824;2024-02-21T10:21:40;66486.06;;;9.55;100.00
19890;BME280;10107;51.198;6.824;2024-02-21T10:25:42;66446.75;;;9.39;100.00
19890;BME280;10107;51.198;6.824;2024-02-21T10:29:50;66475.31;;;9.36;100.00
19890;BME280;10107;51.198;6.824;2024-02-21T10:33:56;66463.50;;;9.46;100.00
19890;BME280;10107;51.198;6.824;2024-02-21T10:37:59;66477.53;;;9.49;100.00
19890;BME280;10107;51.198;6.824;2024-02-21T10:42:01;66436.53;;;9.62;100.00
19890;BME280;10107;51.198;6.824;2024-02-21T10:46:06;66468.13;;;9.66;100.00
19890;BME280;10107;51.198;6.824;2024-02-21T10:50:11;66502.13;;;9.78;100.00
19890;BME280;10107;51.198;6.824;2024-02-21T10:54:30;66501.66;;;9.86;100.00
19890;BME280;10107;51.198;6.824;2024-02-21T10:58:34;66462.50;;;10.09;100.00
19890;BME280;10107;51.198;6.824;2024-02-21T11:02:38;66494.13;;;10.39;100.00
19890;BME280;10107;51.198;6.824;2024-02-21T11:06:41;66492.81;;;10.84;100.00
19890;BME280;10107;51.198;6.824;2024-02-21T11:10:45;66591.94;;;11.36;100.00
19890;BME280;10107;51.198;6.824;2024-02-21T11:14:47;66618.03;;;11.67;100.00
19890;BME280;10107;51.198;6.824;2024-02-21T11:18:50;66630.06;;;11.71;100.00
19890;BME280;10107;51.198;6.824;2024-02-21T11:22:52;66610.38;;;11.91;100.00
19890;BME280;10107;51.198;6.824;2024-02-21T11:27:08;66684.97;;;11.84;100.00
19890;BME280;10107;51.198;6.824;2024-02-21T11:31:11;66628.38;;;11.49;100.00
19890;BME280;10107;51.198;6.824;2024-02-21T11:35:20;66642.31;;;11.38;100.00
19890;BME280;10107;51.198;6.824;2024-02-21T11:39:23;66616.94;;;11.21;100.00
19890;BME280;10107;51.198;6.824;2024-02-21T11:43:25;66594.03;;;11.10;100.00
19890;BME280;10107;51.198;6.824;2024-02-21T11:47:28;66601.53;;;11.28;100.00
19890;BME280;10107;51.198;6.824;2024-02-21T11:51:31;66599.53;;;11.33;100.00
19890;BME280;10107;51.198;6.824;2024-02-21T11:55:33;66613.78;;;11.25;100.00
19890;BME280;10107;51.198;6.824;2024-02-21T11:59:35;66625.53;;;11.30;100.00
19890;BME280;10107;51.198;6.824;2024-02-21T12:03:36;66590.00;;;11.16;100.00
19890;BME280;10107;51.198;6.824;2024-02-21T12:07:40;66617.44;;;11.12;100.00
19890;BME280;10107;51.198;6.824;2024-02-21T12:11:42;66607.41;;;11.33;100.00
19890;BME280;10107;51.198;6.824;2024-02-21T12:15:47;66627.69;;;11.39;100.00
19890;BME280;10107;51.198;6.824;2024-02-21T12:19:50;66597.34;;;11.20;100.00
19890;BME280;10107;51.198;6.824;2024-02-21T12:23:53;66582.72;;;11.21;100.00
19890;BME280;10107;51.198;6.824;2024-02-21T12:27:55;66626.47;;;11.63;100.00
19890;BME280;10107;51.198;6.824;2024-02-21T12:31:57;66620.38;;;11.95;100.00
19890;BME280;10107;51.198;6.824;2024-02-21T12:35:58;66654.19;;;12.08;100.00
19890;BME280;10107;51.198;6.824;2024-02-21T12:40:01;66673.44;;;12.32;100.00
19890;BME280;10107;51.198;6.824;2024-02-21T12:44:07;66686.84;;;12.25;100.00
19890;BME280;10107;51.198;6.824;2024-02-21T12:48:08;66718.19;;;12.22;100.00
19890;BME280;10107;51.198;6.824;2024-02-21T12:52:10;66702.81;;;12.39;100.00
19890;BME280;10107;51.198;6.824;2024-02-21T12:56:14;66679.91;;;12.33;100.00
19890;BME280;10107;51.198;6.824;2024-02-21T13:00:17;66705.16;;;12.36;100.00
19890;BME280;10107;51.198;6.824;2024-02-21T13:04:19;66729.84;;;12.44;100.00
19890;BME280;10107;51.198;6.824;2024-02-21T13:08:22;66730.66;;;12.67;100.00
19890;BME280;10107;51.198;6.824;2024-02-21T13:12:25;66753.03;;;12.78;100.00
19890;BME280;10107;51.198;6.824;2024-02-21T13:16:28;66744.16;;;12.70;100.00
19890;BME280;10107;51.198;6.824;2024-02-21T13:20:30;66717.25;;;12.44;100.00
19890;BME280;10107;51.198;6.824;2024-02-21T13:24:32;66760.59;;;12.41;100.00
19890;BME280;10107;51.198;6.824;2024-02-21T13:28:35;66692.31;;;12.43;100.00
19890;BME280;10107;51.198;6.824;2024-02-21T13:32:36;66722.47;;;12.40;100.00
19890;BME280;10107;51.198;6.824;2024-02-21T13:36:38;66688.41;;;12.33;100.00
19890;BME280;10107;51.198;6.824;2024-02-21T13:40:40;66702.13;;;12.29;100.00
19890;BME280;10107;51.198;6.824;2024-02-21T13:44:44;66672.16;;;12.21;100.00
19890;BME280;10107;51.198;6.824;2024-02-21T13:48:46;66686.34;;;12.04;100.00
19890;BME280;10107;51.198;6.824;2024-02-21T13:52:49;66688.84;;;11.90;100.00
19890;BME280;10107;51.198;6.824;2024-02-21T13:56:51;66660.31;;;11.77;100.00
19890;BME280;10107;51.198;6.824;2024-02-21T14:00:54;66654.88;;;11.63;100.00
19890;BME280;10107;51.198;6.824;2024-02-21T14:04:57;66661.97;;;11.69;100.00
19890;BME280;10107;51.198;6.824;2024-02-21T14:08:59;66670.69;;;11.63;100.00
19890;BME280;10107;51.198;6.824;2024-02-21T14:13:01;66633.53;;;11.65;100.00
19890;BME280;10107;51.198;6.824;2024-02-21T14:17:04;66669.66;;;11.76;100.00
19890;BME280;10107;51.198;6.824;2024-02-21T14:21:06;66651.16;;;11.96;100.00
19890;BME280;10107;51.198;6.824;2024-02-21T14:25:08;66657.22;;;11.90;100.00
19890;BME280;10107;51.198;6.824;2024-02-21T14:29:10;66681.47;;;11.86;100.00
19890;BME280;10107;51.198;6.824;2024-02-21T14:33:14;66663.53;;;11.77;100.00
19890;BME280;10107;51.198;6.824;2024-02-21T14:37:16;66615.34;;;11.63;100.00
19890;BME280;10107;51.198;6.824;2024-02-21T14:41:18;66657.00;;;11.72;100.00
19890;BME280;10107;51.198;6.824;2024-02-21T14:45:20;66638.75;;;11.60;100.00
19890;BME280;10107;51.198;6.824;2024-02-21T14:49:24;66640.25;;;11.64;100.00
19890;BME280;10107;51.198;6.824;2024-02-21T14:53:29;66642.91;;;11.68;100.00
19890;BME280;10107;51.198;6.824;2024-02-21T14:57:32;66659.66;;;11.72;100.00
19890;BME280;10107;51.198;6.824;2024-02-21T15:01:36;66616.44;;;11.55;100.00
19890;BME280;10107;51.198;6.824;2024-02-21T15:05:40;66636.56;;;11.47;100.00
19890;BME280;10107;51.198;6.824;2024-02-21T15:09:42;66617.75;;;11.40;100.00
19890;BME280;10107;51.198;6.824;2024-02-21T15:13:44;66639.09;;;11.38;100.00
19890;BME280;10107;51.198;6.824;2024-02-21T15:17:46;66623.78;;;11.29;100.00
19890;BME280;10107;51.198;6.824;2024-02-21T15:21:49;66616.63;;;11.18;100.00
19890;BME280;10107;51.198;6.824;2024-02-21T15:25:51;66617.34;;;11.03;100.00
19890;BME280;10107;51.198;6.824;2024-02-21T15:29:53;66609.31;;;10.94;100.00
19890;BME280;10107;51.198;6.824;2024-02-21T15:33:55;66589.56;;;10.79;100.00
19890;BME280;10107;51.198;6.824;2024-02-21T15:37:58;66578.63;;;10.67;100.00
19890;BME280;10107;51.198;6.824;2024-02-21T15:42:00;66532.06;;;10.61;100.00
19890;BME280;10107;51.198;6.824;2024-02-21T15:46:01;66531.69;;;10.54;100.00
19890;BME280;10107;51.198;6.824;2024-02-21T15:50:03;66551.22;;;10.50;100.00
19890;BME280;10107;51.198;6.824;2024-02-21T15:54:09;66521.06;;;10.44;100.00
19890;BME280;10107;51.198;6.824;2024-02-21T15:58:12;66532.66;;;10.36;100.00
19890;BME280;10107;51.198;6.824;2024-02-21T16:02:15;66550.75;;;10.34;100.00
19890;BME280;10107;51.198;6.824;2024-02-21T16:06:17;66526.66;;;10.26;100.00
19890;BME280;10107;51.198;6.824;2024-02-21T16:10:20;66563.38;;;10.17;100.00
19890;BME280;10107;51.198;6.824;2024-02-21T16:14:22;66531.13;;;10.07;100.00
19890;BME280;10107;51.198;6.824;2024-02-21T16:18:25;66509.38;;;9.98;100.00
19890;BME280;10107;51.198;6.824;2024-02-21T16:22:26;66520.44;;;9.94;100.00
19890;BME280;10107;51.198;6.824;2024-02-21T16:26:33;66497.25;;;9.85;100.00
19890;BME280;10107;51.198;6.824;2024-02-21T16:30:35;66479.88;;;9.72;100.00
19890;BME280;10107;51.198;6.824;2024-02-21T16:34:37;66465.44;;;9.62;100.00
19890;BME280;10107;51.198;6.824;2024-02-21T16:38:39;66441.09;;;9.52;100.00
19890;BME280;10107;51.198;6.824;2024-02-21T16:42:43;66462.78;;;9.37;100.00
19890;BME280;10107;51.198;6.824;2024-02-21T16:46:44;66433.13;;;9.22;100.00
19890;BME280;10107;51.198;6.824;2024-02-21T16:50:46;66422.56;;;9.18;100.00
19890;BME280;10107;51.198;6.824;2024-02-21T16:54:48;66381.38;;;9.11;100.00
19890;BME280;10107;51.198;6.824;2024-02-21T16:58:51;66366.16;;;9.07;100.00
19890;BME280;10107;51.198;6.824;2024-02-21T17:02:52;66378.34;;;9.04;100.00
19890;BME280;10107;51.198;6.824;2024-02-21T17:06:54;66386.50;;;9.02;100.00
19890;BME280;10107;51.198;6.824;2024-02-21T17:10:56;66373.91;;;8.98;100.00
19890;BME280;10107;51.198;6.824;2024-02-21T17:15:00;66418.19;;;8.96;100.00
19890;BME280;10107;51.198;6.824;2024-02-21T17:19:02;66373.25;;;8.93;100.00
19890;BME280;10107;51.198;6.824;2024-02-21T17:23:05;66406.06;;;8.83;100.00
19890;BME280;10107;51.198;6.824;2024-02-21T17:27:07;66367.50;;;8.77;100.00
19890;BME280;10107;51.198;6.824;2024-02-21T17:31:11;66370.59;;;8.68;100.00
19890;BME280;10107;51.198;6.824;2024-02-21T17:35:13;66337.22;;;8.57;100.00
19890;BME280;10107;51.198;6.824;2024-02-21T17:39:15;66360.78;;;8.52;100.00
19890;BME280;10107;51.198;6.824;2024-02-21T17:43:18;66339.66;;;8.43;100.00
19890;BME280;10107;51.198;6.824;2024-02-21T17:47:22;66321.16;;;8.34;100.00
19890;BME280;10107;51.198;6.824;2024-02-21T17:51:24;66339.13;;;8.27;100.00
19890;BME280;10107;51.198;6.824;2024-02-21T17:55:25;66323.94;;;8.23;100.00
19890;BME280;10107;51.198;6.824;2024-02-21T17:59:27;66334.84;;;8.14;100.00
19890;BME280;10107;51.198;6.824;2024-02-21T18:03:30;66287.31;;;8.07;100.00
19890;BME280;10107;51.198;6.824;2024-02-21T18:07:32;66307.56;;;7.97;100.00
19890;BME280;10107;51.198;6.824;2024-02-21T18:11:34;66283.56;;;7.90;100.00
19890;BME280;10107;51.198;6.824;2024-02-21T18:15:35;66261.06;;;7.82;100.00
19890;BME280;10107;51.198;6.824;2024-02-21T18:19:38;66273.16;;;7.74;100.00
19890;BME280;10107;51.198;6.824;2024-02-21T18:23:40;66282.06;;;7.66;100.00
19890;BME280;10107;51.198;6.824;2024-02-21T18:27:42;66268.00;;;7.58;100.00
19890;BME280;10107;51.198;6.824;2024-02-21T18:31:43;66264.97;;;7.51;100.00
19890;BME280;10107;51.198;6.824;2024-02-21T18:35:46;66225.06;;;7.46;100.00
19890;BME280;10107;51.198;6.824;2024-02-21T18:39:50;66234.19;;;7.36;100.00
19890;BME280;10107;51.198;6.824;2024-02-21T18:43:51;66223.41;;;7.33;100.00
19890;BME280;10107;51.198;6.824;2024-02-21T18:47:53;66176.50;;;7.26;100.00
19890;BME280;10107;51.198;6.824;2024-02-21T18:51:56;66191.03;;;7.25;100.00
19890;BME280;10107;51.198;6.824;2024-02-21T18:55:58;66170.63;;;7.21;100.00
19890;BME280;10107;51.198;6.824;2024-02-21T19:00:00;66209.03;;;7.23;100.00
19890;BME280;10107;51.198;6.824;2024-02-21T19:04:07;66231.66;;;7.20;100.00
19890;BME280;10107;51.198;6.824;2024-02-21T19:08:10;66184.28;;;7.22;100.00
19890;BME280;10107;51.198;6.824;2024-02-21T19:12:11;66213.59;;;7.18;100.00
19890;BME280;10107;51.198;6.824;2024-02-21T19:16:13;66244.97;;;7.18;100.00
19890;BME280;10107;51.198;6.824;2024-02-21T19:20:15;66191.41;;;7.12;100.00
19890;BME280;10107;51.198;6.824;2024-02-21T19:24:18;66176.91;;;7.13;100.00
19890;BME280;10107;51.198;6.824;2024-02-21T19:28:20;66195.47;;;7.11;100.00
19890;BME280;10107;51.198;6.824;2024-02-21T19:32:22;66198.34;;;7.09;100.00
19890;BME280;10107;51.198;6.824;2024-02-21T19:36:24;66211.16;;;7.11;100.00
19890;BME280;10107;51.198;6.824;2024-02-21T19:40:28;66181.81;;;7.10;100.00
19890;BME280;10107;51.198;6.824;2024-02-21T19:44:31;66209.41;;;7.09;100.00
19890;BME280;10107;51.198;6.824;2024-02-21T19:48:33;66197.16;;;7.08;100.00
19890;BME280;10107;51.198;6.824;2024-02-21T19:52:35;66167.81;;;7.07;100.00
19890;BME280;10107;51.198;6.824;2024-02-21T19:56:38;66194.53;;;7.08;100.00
19890;BME280;10107;51.198;6.824;2024-02-21T20:00:40;66194.22;;;7.05;100.00
19890;BME280;10107;51.198;6.824;2024-02-21T20:04:42;66202.66;;;7.06;100.00
19890;BME280;10107;51.198;6.824;2024-02-21T20:08:49;66179.72;;;7.06;100.00
19890;BME280;10107;51.198;6.824;2024-02-21T20:12:52;66198.34;;;7.09;100.00
19890;BME280;10107;51.198;6.824;2024-02-21T20:16:54;66174.22;;;7.08;100.00
19890;BME280;10107;51.198;6.824;2024-02-21T20:20:56;66188.72;;;7.07;100.00
19890;BME280;10107;51.198;6.824;2024-02-21T20:24:57;66192.53;;;7.08;100.00
19890;BME280;10107;51.198;6.824;2024-02-21T20:29:01;66170.16;;;7.09;100.00
19890;BME280;10107;51.198;6.824;2024-02-21T20:33:03;66182.41;;;7.11;100.00
19890;BME280;10107;51.198;6.824;2024-02-21T20:37:07;66195.22;;;7.13;100.00
19890;BME280;10107;51.198;6.824;2024-02-21T20:41:18;66205.69;;;7.13;100.00
19890;BME280;10107;51.198;6.824;2024-02-21T20:45:21;66203.31;;;7.11;100.00
19890;BME280;10107;51.198;6.824;2024-02-21T20:49:23;66203.91;;;7.11;100.00
19890;BME280;10107;51.198;6.824;2024-02-21T20:53:25;66205.69;;;7.13;100.00
19890;BME280;10107;51.198;6.824;2024-02-21T20:57:27;66217.00;;;7.11;100.00
19890;BME280;10107;51.198;6.824;2024-02-21T21:01:30;66195.47;;;7.11;100.00
19890;BME280;10107;51.198;6.824;2024-02-21T21:05:32;66195.22;;;7.13;100.00
19890;BME280;10107;51.198;6.824;2024-02-21T21:09:34;66188.53;;;7.14;100.00
19890;BME280;10107;51.198;6.824;2024-02-21T21:13:36;66164.72;;;7.16;100.00
19890;BME280;10107;51.198;6.824;2024-02-21T21:17:40;66228.97;;;7.15;100.00
19890;BME280;10107;51.198;6.824;2024-02-21T21:21:41;66194.09;;;7.17;100.00